createdAt,value
2016-11-15T00:00:44.173Z,12
2016-11-15T00:01:54.492Z,12
2016-11-15T00:03:04.812Z,12
2016-11-15T00:04:15.130Z,12
2016-11-15T00:05:40.121Z,12
2016-11-15T00:06:50.914Z,12
2016-11-15T00:08:01.234Z,12
2016-11-15T00:09:11.553Z,12
2016-11-15T00:10:21.868Z,12
2016-11-15T00:11:32.186Z,12
2016-11-15T00:12:42.504Z,12
2016-11-15T00:13:52.821Z,12
2016-11-15T00:15:03.135Z,12
2016-11-15T00:16:13.456Z,12
2016-11-15T00:17:38.352Z,12
2016-11-15T00:18:48.670Z,12
2016-11-15T00:19:58.988Z,12
2016-11-15T00:22:34.294Z,12
2016-11-15T00:23:44.614Z,12
2016-11-15T00:25:09.504Z,12
2016-11-15T00:26:19.864Z,12
2016-11-15T00:27:44.762Z,12
2016-11-15T00:28:55.090Z,12
2016-11-15T00:30:05.412Z,12
2016-11-15T00:31:15.734Z,12
2016-11-15T00:32:26.054Z,12
2016-11-15T00:33:36.576Z,12
2016-11-15T00:34:47.016Z,12
2016-11-15T00:35:57.450Z,12
2016-11-15T00:37:07.889Z,12
2016-11-15T00:38:18.324Z,12
2016-11-15T00:39:28.917Z,12
2016-11-15T00:40:39.476Z,12
2016-11-15T00:41:50.009Z,12
2016-11-15T00:43:00.538Z,12
2016-11-15T00:44:11.074Z,12
2016-11-15T00:45:21.836Z,12
2016-11-15T00:46:32.363Z,12
2016-11-15T00:47:42.901Z,12
2016-11-15T00:48:53.433Z,12
2016-11-15T00:50:03.964Z,12
2016-11-15T00:51:14.693Z,12
2016-11-15T00:52:25.226Z,12
2016-11-15T00:53:35.757Z,12
2016-11-15T00:54:46.298Z,12
2016-11-15T00:55:56.826Z,12
2016-11-15T00:57:07.353Z,12
2016-11-15T00:58:17.891Z,12
2016-11-15T00:59:28.428Z,12
2016-11-15T01:00:38.958Z,12
2016-11-15T01:01:49.492Z,12
2016-11-15T01:03:00.121Z,12
2016-11-15T01:04:10.665Z,12
2016-11-15T01:05:21.197Z,12
2016-11-15T01:06:31.732Z,12
2016-11-15T01:07:42.260Z,12
2016-11-15T01:08:52.795Z,12
2016-11-15T01:10:03.329Z,12
2016-11-15T01:11:13.857Z,12
2016-11-15T01:12:24.387Z,12
2016-11-15T01:13:34.921Z,12
2016-11-15T01:14:45.655Z,12
2016-11-15T01:15:56.184Z,12
2016-11-15T01:17:06.753Z,12
2016-11-15T01:18:31.810Z,12
2016-11-15T01:19:42.536Z,12
2016-11-15T01:20:53.067Z,12
2016-11-15T01:22:03.597Z,12
2016-11-15T01:23:14.122Z,12
2016-11-15T01:24:24.650Z,12
2016-11-15T01:25:35.181Z,12
2016-11-15T01:26:45.714Z,12
2016-11-15T01:27:56.249Z,12
2016-11-15T01:29:06.775Z,12
2016-11-15T01:30:17.306Z,12
2016-11-15T01:31:27.833Z,12
2016-11-15T01:32:53.918Z,12
2016-11-15T01:34:04.450Z,12
2016-11-15T01:35:14.984Z,12
2016-11-15T01:36:25.654Z,12
2016-11-15T01:37:36.186Z,12
2016-11-15T01:38:46.716Z,12
2016-11-15T01:39:57.243Z,12
2016-11-15T01:41:07.773Z,12
2016-11-15T01:42:18.301Z,12
2016-11-15T01:43:28.831Z,12
2016-11-15T01:44:39.361Z,12
2016-11-15T01:45:49.888Z,12
2016-11-15T01:47:00.422Z,12
2016-11-15T01:48:11.151Z,12
2016-11-15T01:50:46.732Z,12
2016-11-15T01:51:57.267Z,12
2016-11-15T01:53:08.504Z,12
2016-11-15T01:55:44.096Z,12
2016-11-15T01:56:54.658Z,12
2016-11-15T01:59:30.459Z,12
2016-11-15T02:00:40.993Z,12
2016-11-15T02:01:51.524Z,12
2016-11-15T02:03:02.088Z,12
2016-11-15T02:04:12.818Z,12
2016-11-15T02:05:23.359Z,12
2016-11-15T02:06:33.887Z,12
2016-11-15T02:07:44.412Z,12
2016-11-15T02:08:54.946Z,12
2016-11-15T02:10:05.603Z,12
2016-11-15T02:11:16.046Z,12
2016-11-15T02:12:41.087Z,12
2016-11-15T02:13:51.529Z,12
2016-11-15T02:15:02.162Z,12
2016-11-15T02:16:12.602Z,12
2016-11-15T02:17:23.038Z,12
2016-11-15T02:18:48.022Z,12
2016-11-15T02:19:58.459Z,12
2016-11-15T02:21:08.996Z,12
2016-11-15T02:22:19.438Z,12
2016-11-15T02:23:29.876Z,12
2016-11-15T02:24:40.338Z,12
2016-11-15T02:27:15.759Z,12
2016-11-15T02:28:26.192Z,12
2016-11-15T02:29:36.639Z,12
2016-11-15T02:30:47.076Z,12
2016-11-15T02:31:57.512Z,12
2016-11-15T02:33:07.955Z,12
2016-11-15T02:34:18.394Z,12
2016-11-15T02:35:28.831Z,12
2016-11-15T02:36:39.268Z,12
2016-11-15T02:37:49.705Z,12
2016-11-15T02:39:00.145Z,12
2016-11-15T02:40:10.583Z,12
2016-11-15T02:41:21.017Z,12
2016-11-15T02:42:31.551Z,12
2016-11-15T02:43:41.989Z,12
2016-11-15T02:46:17.404Z,12
2016-11-15T02:47:27.937Z,12
2016-11-15T02:48:38.373Z,12
2016-11-15T02:49:48.822Z,12
2016-11-15T02:50:59.262Z,12
2016-11-15T02:52:09.700Z,12
2016-11-15T02:53:20.247Z,12
2016-11-15T02:54:30.760Z,12
2016-11-15T02:55:41.289Z,12
2016-11-15T02:56:51.824Z,12
2016-11-15T02:58:02.384Z,12
2016-11-15T02:59:12.909Z,12
2016-11-15T03:02:03.025Z,12
2016-11-15T03:03:14.055Z,12
2016-11-15T03:04:24.586Z,12
2016-11-15T03:05:35.116Z,12
2016-11-15T03:06:45.680Z,12
2016-11-15T03:07:56.210Z,12
2016-11-15T03:09:06.740Z,12
2016-11-15T03:10:17.373Z,12
2016-11-15T03:11:27.909Z,12
2016-11-15T03:12:38.440Z,12
2016-11-15T03:15:14.029Z,12
2016-11-15T03:16:24.556Z,12
2016-11-15T03:17:35.091Z,12
2016-11-15T03:18:45.619Z,12
2016-11-15T03:19:56.148Z,12
2016-11-15T03:21:06.777Z,12
2016-11-15T03:22:17.304Z,12
2016-11-15T03:23:27.835Z,12
2016-11-15T03:24:38.282Z,12
2016-11-15T03:25:48.689Z,12
2016-11-15T03:26:59.100Z,12
2016-11-15T03:28:09.526Z,12
2016-11-15T03:29:19.938Z,12
2016-11-15T03:30:30.347Z,12
2016-11-15T03:31:40.767Z,12
2016-11-15T03:32:51.272Z,12
2016-11-15T03:34:01.683Z,12
2016-11-15T03:35:12.091Z,12
2016-11-15T03:36:22.502Z,12
2016-11-15T03:37:32.912Z,12
2016-11-15T03:38:43.525Z,12
2016-11-15T03:39:53.935Z,12
2016-11-15T03:41:04.347Z,12
2016-11-15T03:42:14.763Z,12
2016-11-15T03:43:25.173Z,12
2016-11-15T03:44:35.712Z,12
2016-11-15T03:45:46.123Z,12
2016-11-15T03:46:56.569Z,12
2016-11-15T03:48:21.565Z,12
2016-11-15T03:49:32.174Z,12
2016-11-15T03:50:42.582Z,12
2016-11-15T03:51:52.991Z,12
2016-11-15T03:53:03.400Z,12
2016-11-15T03:54:13.811Z,12
2016-11-15T03:55:24.325Z,12
2016-11-15T03:56:34.740Z,12
2016-11-15T03:57:45.231Z,12
2016-11-15T03:58:55.760Z,12
2016-11-15T04:00:06.322Z,12
2016-11-15T04:01:16.851Z,12
2016-11-15T04:02:27.378Z,12
2016-11-15T04:03:37.908Z,12
2016-11-15T04:04:48.436Z,12
2016-11-15T04:05:58.967Z,12
2016-11-15T04:07:09.699Z,12
2016-11-15T04:08:20.231Z,12
2016-11-15T04:09:30.805Z,12
2016-11-15T04:10:41.334Z,12
2016-11-15T04:11:51.863Z,12
2016-11-15T04:13:02.601Z,12
2016-11-15T04:14:13.169Z,12
2016-11-15T04:15:23.704Z,12
2016-11-15T04:16:34.233Z,12
2016-11-15T04:17:44.804Z,12
2016-11-15T04:18:55.367Z,12
2016-11-15T04:20:05.892Z,12
2016-11-15T04:21:16.432Z,12
2016-11-15T04:22:26.962Z,12
2016-11-15T04:23:37.491Z,12
2016-11-15T04:25:02.546Z,12
2016-11-15T04:26:13.074Z,12
2016-11-15T04:27:23.601Z,12
2016-11-15T04:28:34.136Z,12
2016-11-15T04:29:44.771Z,12
2016-11-15T04:30:55.298Z,12
2016-11-15T04:32:05.825Z,12
2016-11-15T04:33:16.354Z,12
2016-11-15T04:34:26.889Z,12
2016-11-15T04:35:38.116Z,12
2016-11-15T04:36:49.066Z,12
2016-11-15T04:37:59.601Z,12
2016-11-15T04:39:10.133Z,12
2016-11-15T04:40:20.662Z,12
2016-11-15T04:41:31.197Z,12
2016-11-15T04:42:41.723Z,12
2016-11-15T04:43:52.256Z,12
2016-11-15T04:45:02.784Z,12
2016-11-15T04:46:13.312Z,12
2016-11-15T04:47:23.970Z,12
2016-11-15T04:48:49.031Z,12
2016-11-15T04:49:59.559Z,12
2016-11-15T04:51:10.583Z,12
2016-11-15T04:52:21.347Z,12
2016-11-15T04:53:31.877Z,12
2016-11-15T04:54:42.409Z,12
2016-11-15T04:55:52.945Z,12
2016-11-15T04:57:03.475Z,12
2016-11-15T04:58:14.102Z,12
2016-11-15T04:59:24.628Z,12
2016-11-15T05:00:35.164Z,12
2016-11-15T05:01:45.694Z,12
2016-11-15T05:02:56.227Z,12
2016-11-15T05:04:06.756Z,12
2016-11-15T05:05:31.775Z,12
2016-11-15T05:06:42.191Z,12
2016-11-15T05:07:52.636Z,12
2016-11-15T05:09:03.146Z,12
2016-11-15T05:10:13.555Z,12
2016-11-15T05:11:23.966Z,12
2016-11-15T05:12:34.379Z,12
2016-11-15T05:13:44.786Z,12
2016-11-15T05:14:55.435Z,12
2016-11-15T05:16:05.845Z,12
2016-11-15T05:17:16.252Z,12
2016-11-15T05:18:26.659Z,12
2016-11-15T05:19:37.074Z,12
2016-11-15T05:20:47.489Z,12
2016-11-15T05:21:57.909Z,12
2016-11-15T05:23:23.351Z,12
2016-11-15T05:24:33.770Z,12
2016-11-15T05:25:44.281Z,12
2016-11-15T05:26:54.759Z,12
2016-11-15T05:28:05.168Z,12
2016-11-15T05:29:15.578Z,12
2016-11-15T05:30:25.995Z,12
2016-11-15T05:31:36.506Z,12
2016-11-15T05:32:46.915Z,12
2016-11-15T05:33:57.332Z,12
2016-11-15T05:35:07.742Z,12
2016-11-15T05:36:18.156Z,12
2016-11-15T05:37:43.148Z,12
2016-11-15T05:38:53.554Z,12
2016-11-15T05:40:03.967Z,12
2016-11-15T05:41:14.381Z,12
2016-11-15T05:42:24.795Z,12
2016-11-15T05:43:49.752Z,12
2016-11-15T05:45:00.169Z,12
2016-11-15T05:46:10.578Z,12
2016-11-15T05:48:45.950Z,12
2016-11-15T05:49:56.358Z,12
2016-11-15T05:51:06.810Z,12
2016-11-15T05:52:17.221Z,12
2016-11-15T05:53:27.733Z,12
2016-11-15T05:54:38.145Z,12
2016-11-15T05:55:48.565Z,12
2016-11-15T05:58:24.140Z,12
2016-11-15T05:59:49.097Z,12
2016-11-15T06:01:00.026Z,12
2016-11-15T06:02:10.438Z,12
2016-11-15T06:03:20.851Z,12
2016-11-15T06:04:31.274Z,12
2016-11-15T06:05:41.681Z,12
2016-11-15T06:06:52.089Z,12
2016-11-15T06:08:02.500Z,12
2016-11-15T06:09:13.119Z,12
2016-11-15T06:10:23.528Z,12
2016-11-15T06:11:34.430Z,12
2016-11-15T06:12:44.840Z,12
2016-11-15T06:13:55.249Z,12
2016-11-15T06:15:20.307Z,12
2016-11-15T06:16:31.373Z,12
2016-11-15T06:17:42.267Z,12
2016-11-15T06:18:52.681Z,12
2016-11-15T06:20:03.121Z,12
2016-11-15T06:21:13.732Z,12
2016-11-15T06:22:24.146Z,12
2016-11-15T06:23:34.558Z,12
2016-11-15T06:24:44.977Z,12
2016-11-15T06:25:55.386Z,12
2016-11-15T06:27:05.899Z,12
2016-11-15T06:28:16.312Z,12
2016-11-15T06:29:26.725Z,12
2016-11-15T06:30:37.140Z,12
2016-11-15T06:31:47.552Z,12
2016-11-15T06:32:58.002Z,12
2016-11-15T06:34:08.413Z,12
2016-11-15T06:35:18.823Z,12
2016-11-15T06:36:29.235Z,12
2016-11-15T06:37:39.642Z,12
2016-11-15T06:38:50.182Z,12
2016-11-15T06:40:00.523Z,12
2016-11-15T06:41:10.839Z,12
2016-11-15T06:42:21.196Z,12
2016-11-15T06:43:31.515Z,12
2016-11-15T06:44:41.937Z,12
2016-11-15T06:45:52.254Z,12
2016-11-15T06:47:02.572Z,12
2016-11-15T06:48:12.891Z,12
2016-11-15T06:49:23.210Z,12
2016-11-15T06:50:33.629Z,12
2016-11-15T06:51:43.951Z,12
2016-11-15T06:52:54.274Z,12
2016-11-15T06:54:04.594Z,12
2016-11-15T06:55:14.910Z,12
2016-11-15T06:56:25.428Z,12
2016-11-15T06:57:35.753Z,12
2016-11-15T06:58:46.103Z,12
2016-11-15T06:59:56.422Z,12
2016-11-15T07:01:06.739Z,12
2016-11-15T07:02:31.625Z,12
2016-11-15T07:03:41.948Z,12
2016-11-15T07:04:52.305Z,12
2016-11-15T07:06:02.631Z,12
2016-11-15T07:07:12.953Z,12
2016-11-15T07:08:23.267Z,12
2016-11-15T07:09:33.597Z,12
2016-11-15T07:10:43.922Z,12
2016-11-15T07:11:54.239Z,12
2016-11-15T07:13:05.556Z,12
2016-11-15T07:14:15.878Z,12
2016-11-15T07:15:26.195Z,12
2016-11-15T07:16:36.513Z,12
2016-11-15T07:17:46.831Z,12
2016-11-15T07:18:57.152Z,12
2016-11-15T07:20:07.468Z,12
2016-11-15T07:21:17.788Z,12
2016-11-15T07:22:28.109Z,12
2016-11-15T07:23:38.429Z,12
2016-11-15T07:24:48.747Z,12
2016-11-15T07:25:59.069Z,12
2016-11-15T07:27:09.386Z,12
2016-11-15T07:28:19.705Z,12
2016-11-15T07:29:30.025Z,12
2016-11-15T07:30:40.548Z,12
2016-11-15T07:31:50.869Z,12
2016-11-15T07:33:01.187Z,12
2016-11-15T07:34:26.075Z,12
2016-11-15T07:35:36.395Z,12
2016-11-15T07:36:46.718Z,12
2016-11-15T07:37:57.032Z,12
2016-11-15T07:39:07.352Z,12
2016-11-15T07:40:17.669Z,12
2016-11-15T07:41:28.091Z,12
2016-11-15T07:42:52.981Z,12
2016-11-15T07:44:03.318Z,12
2016-11-15T07:45:13.643Z,12
2016-11-15T07:46:24.058Z,12
2016-11-15T07:47:34.382Z,12
2016-11-15T07:48:44.699Z,12
2016-11-15T07:49:55.019Z,12
2016-11-15T07:51:05.337Z,12
2016-11-15T07:52:15.674Z,12
2016-11-15T07:53:26.081Z,12
2016-11-15T07:54:36.518Z,12
2016-11-15T07:55:46.991Z,12
2016-11-15T07:56:57.462Z,12
2016-11-15T07:58:08.096Z,12
2016-11-15T07:59:18.530Z,12
2016-11-15T08:00:28.968Z,12
2016-11-15T08:03:04.595Z,12
2016-11-15T08:04:15.030Z,12
2016-11-15T08:05:25.953Z,16
2016-11-15T08:06:36.390Z,16
2016-11-15T08:09:11.812Z,16
2016-11-15T08:10:22.246Z,20
2016-11-15T08:11:32.685Z,20
2016-11-15T08:12:43.120Z,12
2016-11-15T08:13:53.755Z,12
2016-11-15T08:15:04.196Z,12
2016-11-15T08:16:15.160Z,16
2016-11-15T08:17:25.590Z,16
2016-11-15T08:18:36.027Z,20
2016-11-15T08:19:46.665Z,20
2016-11-15T08:20:57.104Z,28
2016-11-15T08:22:07.599Z,28
2016-11-15T08:23:18.034Z,32
2016-11-15T08:24:28.472Z,32
2016-11-15T08:25:39.109Z,32
2016-11-15T08:26:49.545Z,36
2016-11-15T08:27:59.986Z,40
2016-11-15T08:29:10.420Z,44
2016-11-15T08:30:20.886Z,44
2016-11-15T08:31:31.323Z,44
2016-11-15T08:32:41.760Z,44
2016-11-15T08:33:52.199Z,44
2016-11-15T08:35:03.125Z,48
2016-11-15T08:36:13.559Z,44
2016-11-15T08:37:24.194Z,40
2016-11-15T08:38:34.646Z,48
2016-11-15T08:39:45.086Z,48
2016-11-15T08:40:55.523Z,52
2016-11-15T08:42:05.961Z,60
2016-11-15T08:43:16.396Z,64
2016-11-15T08:44:26.832Z,64
2016-11-15T08:45:37.275Z,60
2016-11-15T08:46:47.708Z,52
2016-11-15T08:47:58.210Z,52
2016-11-15T08:49:08.847Z,52
2016-11-15T08:50:19.283Z,52
2016-11-15T08:51:44.262Z,60
2016-11-15T08:52:54.696Z,68
2016-11-15T08:54:05.621Z,72
2016-11-15T08:55:16.326Z,68
2016-11-15T08:56:41.303Z,76
2016-11-15T08:57:51.738Z,88
2016-11-15T08:59:02.175Z,108
2016-11-15T09:00:27.152Z,120
2016-11-15T09:01:37.595Z,116
2016-11-15T09:02:48.036Z,108
2016-11-15T09:03:58.468Z,100
2016-11-15T09:05:09.018Z,108
2016-11-15T09:06:19.452Z,140
2016-11-15T09:07:29.886Z,164
2016-11-15T09:08:40.323Z,180
2016-11-15T09:09:50.763Z,180
2016-11-15T09:11:01.328Z,156
2016-11-15T09:12:11.765Z,164
2016-11-15T09:13:22.200Z,172
2016-11-15T09:14:32.640Z,176
2016-11-15T09:15:43.075Z,184
2016-11-15T09:16:53.518Z,184
2016-11-15T09:18:03.950Z,200
2016-11-15T09:19:14.387Z,192
2016-11-15T09:20:24.820Z,172
2016-11-15T09:21:35.256Z,156
2016-11-15T09:22:45.792Z,164
2016-11-15T09:23:56.225Z,192
2016-11-15T09:25:06.697Z,228
2016-11-15T09:26:17.132Z,188
2016-11-15T09:27:27.567Z,172
2016-11-15T09:28:38.200Z,192
2016-11-15T09:29:48.637Z,208
2016-11-15T09:30:59.072Z,180
2016-11-15T09:32:09.507Z,168
2016-11-15T09:33:19.938Z,148
2016-11-15T09:34:30.571Z,128
2016-11-15T09:35:41.012Z,132
2016-11-15T09:37:05.989Z,136
2016-11-15T09:38:30.971Z,148
2016-11-15T09:39:41.605Z,168
2016-11-15T09:40:52.880Z,168
2016-11-15T09:42:03.539Z,148
2016-11-15T09:43:14.889Z,144
2016-11-15T09:44:25.326Z,156
2016-11-15T09:45:35.861Z,164
2016-11-15T09:46:46.298Z,184
2016-11-15T09:47:56.731Z,216
2016-11-15T09:49:07.166Z,264
2016-11-15T09:50:17.604Z,268
2016-11-15T09:51:28.871Z,244
2016-11-15T09:52:39.308Z,224
2016-11-15T09:53:49.745Z,216
2016-11-15T09:55:00.185Z,204
2016-11-15T09:56:10.623Z,200
2016-11-15T09:57:21.059Z,232
2016-11-15T09:58:31.507Z,300
2016-11-15T09:59:41.939Z,284
2016-11-15T10:00:52.374Z,308
2016-11-15T10:02:02.811Z,336
2016-11-15T10:03:13.351Z,348
2016-11-15T10:04:23.789Z,392
2016-11-15T10:05:34.234Z,400
2016-11-15T10:06:44.672Z,348
2016-11-15T10:07:55.028Z,272
2016-11-15T10:09:05.444Z,264
2016-11-15T10:10:15.765Z,268
2016-11-15T10:12:51.459Z,328
2016-11-15T10:14:01.876Z,356
2016-11-15T10:15:12.198Z,348
2016-11-15T10:16:22.528Z,340
2016-11-15T10:17:32.848Z,404
2016-11-15T10:18:43.517Z,432
2016-11-15T10:19:53.932Z,440
2016-11-15T10:21:04.252Z,472
2016-11-15T10:22:14.570Z,584
2016-11-15T10:23:24.892Z,688
2016-11-15T10:24:35.289Z,652
2016-11-15T10:25:45.700Z,616
2016-11-15T10:26:56.113Z,632
2016-11-15T10:28:06.526Z,676
2016-11-15T10:29:16.941Z,632
2016-11-15T10:30:27.361Z,544
2016-11-15T10:31:37.870Z,516
2016-11-15T10:32:48.292Z,432
2016-11-15T10:33:58.697Z,312
2016-11-15T10:35:09.109Z,252
2016-11-15T10:36:19.519Z,252
2016-11-15T10:37:30.024Z,256
2016-11-15T10:38:40.430Z,260
2016-11-15T10:41:30.354Z,296
2016-11-15T10:42:41.351Z,308
2016-11-15T10:43:51.761Z,344
2016-11-15T10:45:02.206Z,416
2016-11-15T10:46:27.167Z,464
2016-11-15T10:47:37.681Z,480
2016-11-15T10:48:48.106Z,484
2016-11-15T10:49:58.514Z,476
2016-11-15T10:51:08.924Z,452
2016-11-15T10:52:19.338Z,444
2016-11-15T10:53:29.872Z,464
2016-11-15T10:54:40.286Z,496
2016-11-15T10:55:50.738Z,604
2016-11-15T11:06:02.209Z,992
2016-11-15T11:07:27.167Z,1040
2016-11-15T11:08:37.579Z,1128
2016-11-15T11:09:48.115Z,1144
2016-11-15T11:10:58.437Z,1156
2016-11-15T11:12:08.757Z,1236
2016-11-15T11:13:19.074Z,1200
2016-11-15T11:14:44.163Z,1260
2016-11-15T11:15:54.517Z,1212
2016-11-15T11:17:05.306Z,1108
2016-11-15T11:18:15.627Z,1016
2016-11-15T11:19:25.947Z,888
2016-11-15T11:20:36.464Z,732
2016-11-15T11:21:46.788Z,740
2016-11-15T11:22:57.111Z,712
2016-11-15T11:24:07.434Z,664
2016-11-15T11:25:17.756Z,720
2016-11-15T11:26:28.178Z,840
2016-11-15T11:27:38.496Z,1080
2016-11-15T11:28:48.817Z,1100
2016-11-15T11:29:59.137Z,896
2016-11-15T11:31:09.462Z,764
2016-11-15T11:32:19.981Z,860
2016-11-15T11:33:30.298Z,944
2016-11-15T11:34:40.616Z,1088
2016-11-15T11:35:50.978Z,1292
2016-11-15T11:37:01.299Z,1032
2016-11-15T11:38:11.651Z,848
2016-11-15T11:39:21.973Z,740
2016-11-15T11:40:32.806Z,780
2016-11-15T11:41:57.696Z,740
2016-11-15T11:43:08.115Z,960
2016-11-15T11:44:18.437Z,1008
2016-11-15T11:45:28.752Z,768
2016-11-15T11:46:39.070Z,704
2016-11-15T11:47:49.393Z,820
2016-11-15T11:48:59.912Z,924
2016-11-15T11:50:10.229Z,1016
2016-11-15T11:51:20.552Z,888
2016-11-15T11:52:30.868Z,1008
2016-11-15T11:53:41.193Z,1112
2016-11-15T11:54:51.705Z,1128
2016-11-15T11:56:02.020Z,1092
2016-11-15T11:57:12.341Z,768
2016-11-15T11:58:23.139Z,612
2016-11-15T11:59:33.458Z,648
2016-11-15T12:00:43.782Z,660
2016-11-15T12:01:54.104Z,644
2016-11-15T12:03:04.421Z,748
2016-11-15T12:04:29.310Z,920
2016-11-15T12:05:39.726Z,632
2016-11-15T12:06:50.049Z,828
2016-11-15T12:08:00.363Z,1000
2016-11-15T12:09:10.680Z,896
2016-11-15T12:10:20.998Z,740
2016-11-15T12:11:45.886Z,700
2016-11-15T12:12:56.210Z,684
2016-11-15T12:14:06.529Z,812
2016-11-15T12:15:16.849Z,696
2016-11-15T12:16:27.172Z,772
2016-11-15T12:17:37.521Z,992
2016-11-15T12:18:47.833Z,1020
2016-11-15T12:19:58.149Z,1000
2016-11-15T12:21:08.471Z,1016
2016-11-15T12:22:18.890Z,1084
2016-11-15T12:23:29.239Z,1536
2016-11-15T12:24:39.561Z,1876
2016-11-15T12:25:49.880Z,1668
2016-11-15T12:27:00.201Z,1792
2016-11-15T12:28:10.521Z,2512
2016-11-15T12:29:20.844Z,2140
2016-11-15T12:30:31.171Z,1700
2016-11-15T12:31:41.496Z,1972
2016-11-15T12:32:51.819Z,1432
2016-11-15T12:34:02.140Z,1036
2016-11-15T12:35:27.030Z,788
2016-11-15T12:36:37.360Z,756
2016-11-15T12:37:47.677Z,736
2016-11-15T12:38:58.095Z,752
2016-11-15T12:40:08.458Z,796
2016-11-15T12:41:18.777Z,856
2016-11-15T12:42:29.092Z,804
2016-11-15T12:43:39.412Z,776
2016-11-15T12:44:49.730Z,852
2016-11-15T12:46:00.046Z,940
2016-11-15T12:47:10.396Z,964
2016-11-15T12:48:20.717Z,1072
2016-11-15T12:49:31.050Z,1216
2016-11-15T12:50:41.607Z,1240
2016-11-15T12:51:51.922Z,1356
2016-11-15T12:53:02.239Z,1268
2016-11-15T12:54:12.601Z,1280
2016-11-15T12:55:22.916Z,1364
2016-11-15T12:56:33.431Z,1528
2016-11-15T12:57:43.754Z,1360
2016-11-15T12:58:54.071Z,988
2016-11-15T13:00:04.476Z,972
2016-11-15T13:01:15.284Z,1004
2016-11-15T13:02:25.606Z,932
2016-11-15T13:05:00.830Z,756
2016-11-15T13:06:11.636Z,956
2016-11-15T13:07:22.152Z,1180
2016-11-15T13:08:32.479Z,1432
2016-11-15T13:09:42.804Z,1320
2016-11-15T13:10:53.205Z,1336
2016-11-15T13:12:03.542Z,1144
2016-11-15T13:13:13.993Z,1024
2016-11-15T13:14:24.314Z,1000
2016-11-15T13:15:34.632Z,936
2016-11-15T13:16:44.951Z,956
2016-11-15T13:17:56.219Z,1024
2016-11-15T13:19:06.643Z,1156
2016-11-15T13:20:31.540Z,1288
2016-11-15T13:21:41.856Z,1436
2016-11-15T13:22:52.176Z,1772
2016-11-15T13:24:02.499Z,1732
2016-11-15T13:25:12.847Z,2092
2016-11-15T13:26:23.168Z,2220
2016-11-15T13:27:33.490Z,2468
2016-11-15T13:28:43.853Z,1932
2016-11-15T13:29:54.272Z,2008
2016-11-15T13:31:04.799Z,1752
2016-11-15T13:32:15.121Z,1708
2016-11-15T13:33:25.448Z,2256
2016-11-15T13:34:35.775Z,1968
2016-11-15T13:35:46.191Z,2804
2016-11-15T13:36:56.517Z,2164
2016-11-15T13:38:06.839Z,1916
2016-11-15T13:39:17.157Z,1508
2016-11-15T13:40:27.479Z,1348
2016-11-15T13:41:37.902Z,1088
2016-11-15T13:42:48.225Z,1028
2016-11-15T13:43:58.546Z,1196
2016-11-15T13:45:08.870Z,1244
2016-11-15T13:46:19.202Z,1348
2016-11-15T13:47:30.107Z,1500
2016-11-15T13:48:40.425Z,1372
2016-11-15T13:49:50.752Z,1396
2016-11-15T13:51:01.077Z,1528
2016-11-15T13:52:11.400Z,1704
2016-11-15T13:53:21.819Z,1784
2016-11-15T13:54:32.141Z,1940
2016-11-15T13:55:42.470Z,1952
2016-11-15T13:56:52.792Z,2128
2016-11-15T13:58:03.111Z,2252
2016-11-15T13:59:14.012Z,1164
2016-11-15T14:00:38.899Z,1008
2016-11-15T14:01:49.224Z,944
2016-11-15T14:02:59.552Z,1008
2016-11-15T14:04:09.958Z,1108
2016-11-15T14:05:20.407Z,1172
2016-11-15T14:06:30.849Z,1308
2016-11-15T14:07:41.290Z,1704
2016-11-15T14:08:51.760Z,1844
2016-11-15T14:10:02.688Z,1408
2016-11-15T14:11:13.131Z,1312
2016-11-15T14:12:23.570Z,1572
2016-11-15T14:13:34.020Z,1700
2016-11-15T14:14:44.459Z,2088
2016-11-15T14:15:54.903Z,1588
2016-11-15T14:17:05.346Z,1468
2016-11-15T14:18:15.783Z,1320
2016-11-15T14:19:26.223Z,1296
2016-11-15T14:20:36.665Z,1216
2016-11-15T14:21:47.315Z,1112
2016-11-15T14:22:57.758Z,1172
2016-11-15T14:24:08.201Z,1212
2016-11-15T14:25:33.185Z,1248
2016-11-15T14:26:43.860Z,1408
2016-11-15T14:27:54.304Z,2228
2016-11-15T14:29:04.745Z,1616
2016-11-15T14:30:15.189Z,1352
2016-11-15T14:31:25.630Z,1128
2016-11-15T14:32:50.612Z,1072
2016-11-15T14:34:01.047Z,1108
2016-11-15T14:35:11.492Z,1168
2016-11-15T14:36:21.929Z,1140
2016-11-15T14:37:32.369Z,1168
2016-11-15T14:38:42.810Z,1128
2016-11-15T14:40:07.794Z,1116
2016-11-15T14:41:18.234Z,1100
2016-11-15T14:42:43.319Z,1136
2016-11-15T14:43:53.753Z,1188
2016-11-15T14:45:04.188Z,1136
2016-11-15T14:46:14.631Z,1140
2016-11-15T14:47:39.614Z,1128
2016-11-15T14:48:50.050Z,1136
2016-11-15T14:50:00.488Z,1164
2016-11-15T14:51:11.413Z,1148
2016-11-15T14:52:21.849Z,1280
2016-11-15T14:53:32.289Z,1436
2016-11-15T14:54:42.731Z,1600
2016-11-15T14:55:53.163Z,1588
2016-11-15T14:57:18.142Z,2024
2016-11-15T14:58:29.066Z,2788
2016-11-15T14:59:39.503Z,1676
2016-11-15T15:00:49.943Z,2728
2016-11-15T15:02:00.380Z,2496
2016-11-15T15:03:10.821Z,2436
2016-11-15T15:04:36.023Z,2520
2016-11-15T15:05:46.469Z,2356
2016-11-15T15:06:56.905Z,2388
2016-11-15T15:08:07.355Z,1580
2016-11-15T15:09:17.795Z,1664
2016-11-15T15:10:42.782Z,952
2016-11-15T15:11:53.224Z,1000
2016-11-15T15:13:03.584Z,1080
2016-11-15T15:14:13.904Z,1240
2016-11-15T15:15:24.322Z,1360
2016-11-15T15:16:34.648Z,1416
2016-11-15T15:17:44.968Z,2636
2016-11-15T15:18:55.286Z,2256
2016-11-15T15:20:06.281Z,2016
2016-11-15T15:21:16.601Z,1888
2016-11-15T15:22:26.922Z,1948
2016-11-15T15:23:37.243Z,1552
2016-11-15T15:24:47.561Z,1424
2016-11-15T15:25:58.082Z,1704
2016-11-15T15:27:08.402Z,1440
2016-11-15T15:28:18.726Z,1840
2016-11-15T15:29:29.050Z,1872
2016-11-15T15:30:53.951Z,916
2016-11-15T15:32:04.756Z,636
2016-11-15T15:33:15.081Z,444
2016-11-15T15:34:25.883Z,392
2016-11-15T15:35:36.203Z,404
2016-11-15T15:36:46.526Z,444
2016-11-15T15:37:56.847Z,492
2016-11-15T15:39:07.239Z,568
2016-11-15T15:40:32.200Z,632
2016-11-15T15:41:42.818Z,696
2016-11-15T15:43:07.788Z,760
2016-11-15T15:44:18.199Z,764
2016-11-15T15:45:28.612Z,740
2016-11-15T15:46:39.183Z,696
2016-11-15T15:47:49.850Z,696
2016-11-15T15:49:00.388Z,788
2016-11-15T15:50:10.931Z,836
2016-11-15T15:51:35.985Z,952
2016-11-15T15:52:46.527Z,1044
2016-11-15T15:53:57.062Z,1084
2016-11-15T15:55:07.600Z,1064
2016-11-15T15:56:18.132Z,1096
2016-11-15T15:57:28.662Z,1100
2016-11-15T15:58:39.193Z,1104
2016-11-15T15:59:49.760Z,1184
2016-11-15T16:01:00.320Z,1244
2016-11-15T16:02:10.850Z,1324
2016-11-15T16:03:21.377Z,1740
2016-11-15T16:04:32.110Z,2012
2016-11-15T16:05:42.644Z,1632
2016-11-15T16:06:53.175Z,1356
2016-11-15T16:08:18.232Z,1296
2016-11-15T16:09:28.968Z,1288
2016-11-15T16:10:39.502Z,1688
2016-11-15T16:11:50.068Z,1256
2016-11-15T16:13:00.600Z,1516
2016-11-15T16:14:11.145Z,1648
2016-11-15T16:15:21.704Z,1920
2016-11-15T16:16:32.239Z,1888
2016-11-15T16:17:42.775Z,2304
2016-11-15T16:19:08.349Z,2040
2016-11-15T16:20:18.881Z,1920
2016-11-15T16:21:29.413Z,1392
2016-11-15T16:22:40.446Z,1432
2016-11-15T16:23:50.978Z,1724
2016-11-15T16:25:01.508Z,1628
2016-11-15T16:26:12.147Z,1504
2016-11-15T16:27:22.681Z,1444
2016-11-15T16:28:33.216Z,1384
2016-11-15T16:29:44.243Z,1352
2016-11-15T16:30:54.782Z,1396
2016-11-15T16:32:05.444Z,1408
2016-11-15T16:33:15.978Z,1388
2016-11-15T16:34:26.512Z,1356
2016-11-15T16:35:37.046Z,1312
2016-11-15T16:37:02.304Z,1348
2016-11-15T16:38:12.838Z,1344
2016-11-15T16:39:37.899Z,1208
2016-11-15T16:40:48.428Z,1544
2016-11-15T16:41:58.964Z,1292
2016-11-15T16:43:09.534Z,1092
2016-11-15T16:44:20.067Z,1136
2016-11-15T16:45:30.630Z,1132
2016-11-15T16:46:41.160Z,1092
2016-11-15T16:48:06.418Z,1048
2016-11-15T16:49:16.949Z,1004
2016-11-15T16:50:27.483Z,964
2016-11-15T16:51:38.051Z,960
2016-11-15T16:52:48.784Z,996
2016-11-15T16:53:59.821Z,1084
2016-11-15T16:55:10.355Z,1160
2016-11-15T16:56:20.888Z,1152
2016-11-15T16:57:45.981Z,1104
2016-11-15T16:58:56.714Z,1080
2016-11-15T17:00:07.249Z,956
2016-11-15T17:01:32.310Z,960
2016-11-15T17:02:42.841Z,1000